Time;durP1;ratioP1;P1;durP2;ratioP2;P2;SDS_P1;SDS_P2;PMS_P1;PMS_P2;Temp;Humidity;BMP_temperature;BMP_pressure;BME280_temperature;BME280_humidity;BME280_pressure;Samples;Min_cycle;Max_cycle;Signal;HPM_P1;HPM_P2
2024/01/22 00:02:02;;;;;;;9.15;4.03;;;;;;;5.38;100.00;100866.13;6352867;28;20052;-80
2024/01/22 00:05:04;;;;;;;7.43;3.30;;;;;;;5.37;100.00;100852.22;6352401;28;20418;-80
2024/01/22 00:08:06;;;;;;;16.63;5.05;;;;;;;5.34;100.00;100836.69;6343411;28;20052;-79
2024/01/22 00:11:09;;;;;;;8.73;3.92;;;;;;;5.40;100.00;100812.19;6343940;28;20423;-78
2024/01/22 00:14:10;;;;;;;9.02;3.83;;;;;;;5.45;100.00;100811.16;6352558;28;20052;-80
2024/01/22 00:17:12;;;;;;;9.02;4.07;;;;;;;5.47;100.00;100798.06;6351934;28;20424;-80
2024/01/22 00:20:13;;;;;;;12.18;4.07;;;;;;;5.50;100.00;100791.03;6352762;28;20047;-80
2024/01/22 00:23:14;;;;;;;11.35;3.33;;;;;;;5.53;100.00;100770.03;6351090;28;20077;-75
2024/01/22 00:26:17;;;;;;;10.35;3.20;;;;;;;5.57;100.00;100724.75;6350996;28;20054;-74
2024/01/22 00:29:18;;;;;;;14.15;4.35;;;;;;;5.50;100.00;100702.41;6351917;28;20066;-75
2024/01/22 00:32:20;;;;;;;11.68;3.75;;;;;;;5.45;100.00;100679.97;6352063;28;20048;-73
2024/01/22 00:35:21;;;;;;;14.15;4.18;;;;;;;5.50;100.00;100660.69;6351875;28;20050;-73
2024/01/22 00:38:22;;;;;;;13.65;3.78;;;;;;;5.51;100.00;100661.53;6351040;28;20347;-73
2024/01/22 00:41:25;;;;;;;6.50;3.65;;;;;;;5.50;100.00;100678.94;6351861;28;20044;-75
2024/01/22 00:44:26;;;;;;;9.38;3.40;;;;;;;5.56;100.00;100696.97;6344033;28;20444;-73
2024/01/22 00:47:28;;;;;;;6.90;3.28;;;;;;;5.57;100.00;100675.22;6340962;28;20039;-73
2024/01/22 00:50:29;;;;;;;10.75;3.40;;;;;;;5.55;100.00;100677.03;6342923;28;20432;-74
2024/01/22 00:53:31;;;;;;;8.40;3.55;;;;;;;5.56;100.00;100655.25;6337988;28;20051;-73
2024/01/22 00:56:34;;;;;;;9.63;3.63;;;;;;;5.48;100.00;100644.25;6348861;28;20046;-73
2024/01/22 00:59:36;;;;;;;5.57;3.10;;;;;;;5.33;100.00;100623.94;6351550;28;20134;-74
2024/01/22 01:02:38;;;;;;;10.18;4.13;;;;;;;5.37;100.00;100619.47;6324591;28;20048;-74
2024/01/22 01:05:39;;;;;;;9.25;3.28;;;;;;;5.35;100.00;100628.16;6333791;28;20044;-74
2024/01/22 01:08:40;;;;;;;10.40;3.60;;;;;;;5.23;100.00;100617.31;6325218;28;20425;-75
2024/01/22 01:11:43;;;;;;;11.68;3.20;;;;;;;5.19;100.00;100611.38;6325664;28;20048;-74
2024/01/22 01:14:44;;;;;;;8.77;3.83;;;;;;;5.26;100.00;100585.94;6325529;28;20048;-74
2024/01/22 01:17:46;;;;;;;12.30;3.65;;;;;;;5.22;100.00;100580.00;6325030;28;20058;-74
2024/01/22 01:20:47;;;;;;;9.95;3.53;;;;;;;5.20;100.00;100547.94;6325638;28;20052;-74
2024/01/22 01:23:49;;;;;;;9.10;3.45;;;;;;;5.22;100.00;100535.72;6325262;28;20058;-74
2024/01/22 01:26:53;;;;;;;11.20;3.85;;;;;;;5.29;100.00;100531.13;6325094;28;20051;-74
2024/01/22 01:29:54;;;;;;;6.65;2.63;;;;;;;5.32;100.00;100563.16;6325398;28;20044;-74
2024/01/22 01:32:55;;;;;;;5.65;2.72;;;;;;;5.42;100.00;100541.97;6326858;28;20058;-75
2024/01/22 01:35:57;;;;;;;5.95;2.85;;;;;;;5.48;100.00;100549.56;6341366;28;20054;-74
2024/01/22 01:38:58;;;;;;;7.05;2.47;;;;;;;5.48;100.00;100567.81;6350509;28;20047;-74
2024/01/22 01:42:01;;;;;;;4.78;2.53;;;;;;;5.48;100.00;100546.97;6350587;28;20431;-74
2024/01/22 01:45:02;;;;;;;10.43;2.97;;;;;;;5.58;100.00;100546.56;6350203;28;20047;-74
2024/01/22 01:48:04;;;;;;;8.27;3.10;;;;;;;5.59;100.00;100543.09;6350046;28;20048;-74
2024/01/22 01:51:06;;;;;;;4.95;2.50;;;;;;;5.63;100.00;100517.72;6350171;28;20134;-74
2024/01/22 01:54:09;;;;;;;7.80;2.30;;;;;;;5.67;100.00;100505.44;6350354;28;20086;-74
2024/01/22 01:57:12;;;;;;;5.72;2.40;;;;;;;5.71;100.00;100509.63;6349735;28;20039;-74
2024/01/22 02:00:15;;;;;;;9.30;2.80;;;;;;;5.74;100.00;100488.69;6350431;28;20435;-74
2024/01/22 02:03:16;;;;;;;6.63;2.45;;;;;;;5.87;100.00;100484.69;6349999;28;20043;-73
2024/01/22 02:06:17;;;;;;;6.15;2.83;;;;;;;5.88;100.00;100462.06;6349408;28;20051;-74
2024/01/22 02:09:19;;;;;;;7.00;2.70;;;;;;;5.90;100.00;100453.28;6352850;28;20052;-74
2024/01/22 02:12:21;;;;;;;4.18;1.88;;;;;;;5.96;100.00;100450.47;6348825;28;20051;-74
2024/01/22 02:15:23;;;;;;;7.47;2.03;;;;;;;5.99;100.00;100452.09;6340532;28;20035;-75
2024/01/22 02:18:24;;;;;;;4.40;2.03;;;;;;;6.09;100.00;100436.03;6340605;28;20048;-75
2024/01/22 02:21:26;;;;;;;3.17;1.83;;;;;;;5.98;100.00;100440.81;6352468;28;20048;-75
2024/01/22 02:24:28;;;;;;;5.68;1.75;;;;;;;5.97;100.00;100427.84;6340819;28;20352;-75
2024/01/22 02:27:30;;;;;;;4.72;1.77;;;;;;;6.00;100.00;100431.19;6352667;28;20052;-75
2024/01/22 02:30:31;;;;;;;3.42;1.50;;;;;;;6.11;100.00;100433.38;6354774;28;20051;-75
2024/01/22 02:33:32;;;;;;;6.30;1.73;;;;;;;6.18;100.00;100423.56;6354709;28;20052;-75
2024/01/22 02:36:34;;;;;;;6.43;2.35;;;;;;;6.19;100.00;100415.66;6354063;28;20048;-74
2024/01/22 02:39:37;;;;;;;7.45;1.42;;;;;;;6.18;100.00;100387.03;6339101;28;20040;-74
2024/01/22 02:42:38;;;;;;;7.00;1.90;;;;;;;6.32;100.00;100363.81;6328467;28;20055;-75
2024/01/22 02:45:40;;;;;;;5.53;1.95;;;;;;;6.42;100.00;100414.69;6329054;28;20055;-75
2024/01/22 02:48:41;;;;;;;4.38;2.33;;;;;;;6.47;100.00;100397.09;6328717;28;20052;-74
2024/01/22 02:51:43;;;;;;;4.75;1.80;;;;;;;6.49;100.00;100368.28;6329035;28;20048;-75
2024/01/22 02:54:46;;;;;;;4.53;1.60;;;;;;;6.55;100.00;100358.47;6328914;28;20052;-75
2024/01/22 02:57:47;;;;;;;3.25;1.52;;;;;;;6.58;100.00;100391.41;6328372;28;20448;-75
2024/01/22 03:00:48;;;;;;;3.78;1.88;;;;;;;6.58;100.00;100381.81;6328959;28;20044;-74
2024/01/22 03:03:50;;;;;;;3.10;1.70;;;;;;;6.61;100.00;100402.56;6328384;28;20047;-75
2024/01/22 03:06:51;;;;;;;5.70;1.73;;;;;;;6.61;100.00;100389.50;6328136;28;20055;-75
2024/01/22 03:09:54;;;;;;;4.25;1.50;;;;;;;6.61;100.00;100386.06;6336935;28;20463;-75
2024/01/22 03:12:55;;;;;;;5.35;1.25;;;;;;;6.73;100.00;100384.69;6346743;28;20047;-75
2024/01/22 03:15:56;;;;;;;1.98;1.20;;;;;;;6.99;100.00;100384.38;6343276;28;20074;-75
2024/01/22 03:18:59;;;;;;;7.97;1.00;;;;;;;7.11;100.00;100375.16;6328532;28;20059;-76
2024/01/22 03:22:00;;;;;;;1.75;0.73;;;;;;;7.27;100.00;100357.88;6327352;28;20439;-75
2024/01/22 03:25:03;;;;;;;2.13;0.85;;;;;;;7.50;100.00;100356.81;6327894;28;20051;-76
2024/01/22 03:28:05;;;;;;;2.95;1.00;;;;;;;7.63;100.00;100351.84;6327673;28;20059;-75
2024/01/22 03:31:06;;;;;;;0.82;0.60;;;;;;;7.59;100.00;100339.84;6327138;28;20063;-75
2024/01/22 03:34:07;;;;;;;2.15;0.70;;;;;;;7.70;100.00;100334.94;6327796;28;20059;-75
2024/01/22 03:37:09;;;;;;;4.38;1.20;;;;;;;7.67;100.00;100314.16;6327587;28;20620;-75
2024/01/22 03:40:12;;;;;;;2.25;0.88;;;;;;;7.68;100.00;100308.03;6328075;28;20055;-75
2024/01/22 03:43:13;;;;;;;3.88;0.88;;;;;;;7.71;100.00;100297.38;6324367;28;20059;-74
2024/01/22 03:46:16;;;;;;;2.00;0.90;;;;;;;7.84;100.00;100310.72;6320712;28;20349;-74
2024/01/22 03:49:18;;;;;;;1.63;0.80;;;;;;;7.84;100.00;100322.03;6327620;28;20059;-74
2024/01/22 03:52:19;;;;;;;2.72;1.42;;;;;;;8.06;100.00;100313.97;6327786;28;20052;-76
2024/01/22 03:55:22;;;;;;;4.20;0.88;;;;;;;8.32;100.00;100299.56;6326852;28;20356;-76
2024/01/22 03:58:23;;;;;;;4.00;0.80;;;;;;;8.23;100.00;100304.44;6327208;28;20040;-75
2024/01/22 04:01:24;;;;;;;0.85;0.77;;;;;;;8.26;100.00;100289.41;6327227;28;20056;-75
2024/01/22 04:04:26;;;;;;;6.65;0.82;;;;;;;8.30;100.00;100272.59;6327373;28;20063;-75
2024/01/22 04:07:27;;;;;;;2.95;0.80;;;;;;;8.33;100.00;100262.00;6326543;28;20044;-75
2024/01/22 04:10:30;;;;;;;0.90;0.70;;;;;;;8.31;100.00;100242.03;6327089;28;20356;-75
2024/01/22 04:13:31;;;;;;;1.33;0.70;;;;;;;8.24;100.00;100227.59;6330719;28;20062;-75
2024/01/22 04:16:32;;;;;;;1.83;0.77;;;;;;;8.28;100.00;100229.13;6341272;28;20046;-76
2024/01/22 04:19:34;;;;;;;2.50;0.88;;;;;;;8.34;100.00;100220.94;6349018;28;20050;-76
2024/01/22 04:22:35;;;;;;;2.67;0.70;;;;;;;8.39;100.00;100213.72;6343163;28;20359;-76
2024/01/22 04:25:38;;;;;;;3.28;1.10;;;;;;;8.48;100.00;100213.22;6352299;28;20047;-76
2024/01/22 04:28:39;;;;;;;1.40;0.82;;;;;;;8.45;100.00;100202.94;6351545;28;20055;-75
2024/01/22 04:31:40;;;;;;;1.23;0.90;;;;;;;8.46;100.00;100191.53;6352050;28;20051;-76
2024/01/22 04:34:42;;;;;;;2.00;1.02;;;;;;;8.51;100.00;100196.53;6351658;28;20074;-75
2024/01/22 04:37:43;;;;;;;1.02;0.68;;;;;;;8.51;100.00;100181.66;6336733;28;20047;-74
2024/01/22 04:40:46;;;;;;;1.65;0.70;;;;;;;8.61;100.00;100190.69;6350995;28;20102;-75
2024/01/22 04:43:47;;;;;;;8.10;1.15;;;;;;;8.60;100.00;100173.31;6351750;28;20048;-76
2024/01/22 04:46:48;;;;;;;1.70;0.63;;;;;;;8.50;100.00;100181.75;6351040;28;20040;-75
2024/01/22 04:49:50;;;;;;;1.48;0.82;;;;;;;8.41;100.00;100177.84;6351999;28;20062;-76
2024/01/22 04:52:51;;;;;;;1.30;0.73;;;;;;;8.39;100.00;100171.84;6351356;28;20048;-76
2024/01/22 04:55:54;;;;;;;2.25;0.90;;;;;;;8.32;100.00;100179.16;6351272;28;20048;-76
2024/01/22 04:58:55;;;;;;;1.48;0.70;;;;;;;8.19;100.00;100141.47;6347796;28;20356;-76
2024/01/22 05:01:56;;;;;;;0.95;0.68;;;;;;;8.16;100.00;100156.47;6342644;28;20050;-76
2024/01/22 05:04:58;;;;;;;1.45;0.70;;;;;;;8.00;100.00;100146.81;6351207;28;20047;-75
2024/01/22 05:07:59;;;;;;;5.88;0.85;;;;;;;7.99;100.00;100141.66;6348264;28;20048;-76
2024/01/22 05:11:02;;;;;;;1.05;0.60;;;;;;;7.99;100.00;100121.56;6342742;28;20052;-76
2024/01/22 05:14:03;;;;;;;1.58;0.70;;;;;;;8.08;100.00;100123.72;6350826;28;20047;-76
2024/01/22 05:17:05;;;;;;;1.52;0.80;;;;;;;8.20;100.00;100116.97;6350590;28;20126;-75
2024/01/22 05:20:07;;;;;;;2.60;0.63;;;;;;;8.16;100.00;100097.13;6350828;28;20355;-75
2024/01/22 05:23:08;;;;;;;2.28;0.60;;;;;;;8.18;100.00;100110.16;6350675;28;20050;-76
2024/01/22 05:26:11;;;;;;;2.13;1.05;;;;;;;8.12;100.00;100096.44;6350451;28;20059;-76
2024/01/22 05:29:12;;;;;;;1.23;0.60;;;;;;;8.14;100.00;100091.13;6350669;28;20454;-76
2024/01/22 05:32:14;;;;;;;1.00;0.77;;;;;;;8.16;100.00;100067.50;6350929;28;20048;-75
2024/01/22 05:35:16;;;;;;;4.75;0.93;;;;;;;8.18;100.00;100055.19;6350365;28;20050;-76
2024/01/22 05:38:17;;;;;;;3.45;0.88;;;;;;;8.13;100.00;100077.22;6350188;28;20043;-76
2024/01/22 05:41:20;;;;;;;2.35;0.90;;;;;;;8.28;100.00;100030.19;6350556;28;20055;-74
2024/01/22 05:44:21;;;;;;;0.50;0.45;;;;;;;8.31;100.00;100037.84;6350156;28;20054;-76
2024/01/22 05:47:23;;;;;;;1.55;0.90;;;;;;;8.34;100.00;100048.16;6349696;28;20047;-76
2024/01/22 05:50:24;;;;;;;2.28;0.73;;;;;;;8.39;100.00;100031.28;6350627;28;20044;-75
2024/01/22 05:53:25;;;;;;;0.95;0.60;;;;;;;8.52;100.00;100015.75;6350320;28;20055;-73
2024/01/22 05:56:28;;;;;;;3.33;0.75;;;;;;;8.53;100.00;100016.59;6350011;28;20311;-77
2024/01/22 05:59:30;;;;;;;0.45;0.45;;;;;;;8.76;100.00;100033.59;6350457;28;20419;-76
2024/01/22 06:02:31;;;;;;;1.38;0.55;;;;;;;8.84;100.00;100016.53;6349887;28;20047;-76
2024/01/22 06:05:32;;;;;;;3.13;0.85;;;;;;;8.69;100.00;100054.09;6350533;28;20356;-76
2024/01/22 06:08:34;;;;;;;0.80;0.60;;;;;;;8.67;100.00;100015.81;6349712;28;20051;-77
2024/01/22 06:11:36;;;;;;;0.98;0.45;;;;;;;8.89;100.00;100089.63;6341951;28;20067;-77
2024/01/22 06:14:38;;;;;;;2.03;0.50;;;;;;;8.98;100.00;100022.75;6327449;28;20361;-77
2024/01/22 06:17:39;;;;;;;1.27;0.68;;;;;;;8.94;100.00;100018.59;6318625;28;20044;-77
2024/01/22 06:20:40;;;;;;;1.13;0.57;;;;;;;8.89;100.00;100011.00;6313428;28;20522;-76
2024/01/22 06:23:42;;;;;;;6.80;1.13;;;;;;;8.97;100.00;99990.44;6312959;22;20056;-75
2024/01/22 06:26:44;;;;;;;0.95;0.70;;;;;;;8.96;100.00;100024.63;6285654;28;20052;-75
2024/01/22 06:29:46;;;;;;;0.85;0.60;;;;;;;8.89;100.00;100014.47;6295281;28;20060;-76
2024/01/22 06:32:47;;;;;;;1.67;0.73;;;;;;;8.93;100.00;99993.34;6297168;28;20356;-75
2024/01/22 06:35:49;;;;;;;3.70;1.05;;;;;;;8.82;100.00;99983.50;6298420;28;20056;-75
2024/01/22 06:38:50;;;;;;;3.92;0.70;;;;;;;8.84;100.00;99994.72;6299675;28;20381;-75
2024/01/22 06:41:53;;;;;;;1.20;0.60;;;;;;;8.98;100.00;100020.13;6298966;28;20059;-75
2024/01/22 06:44:54;;;;;;;0.65;0.50;;;;;;;8.99;100.00;100006.91;6282468;28;20049;-76
2024/01/22 06:47:56;;;;;;;1.13;0.70;;;;;;;8.96;100.00;100007.13;6274015;28;20048;-75
2024/01/22 06:50:57;;;;;;;4.47;0.68;;;;;;;9.10;100.00;99986.19;6274535;28;20056;-75
2024/01/22 06:53:58;;;;;;;0.70;0.60;;;;;;;9.17;100.00;100030.34;6274311;28;20045;-75
2024/01/22 06:57:01;;;;;;;0.65;0.50;;;;;;;9.20;100.00;100010.06;6277687;28;20344;-76
2024/01/22 07:00:07;;;;;;;1.48;0.77;;;;;;;9.28;100.00;100012.22;6279052;28;20056;-75
2024/01/22 07:03:08;;;;;;;1.48;0.77;;;;;;;9.35;100.00;100013.53;6278597;28;20440;-76
2024/01/22 07:06:09;;;;;;;2.25;0.80;;;;;;;9.30;100.00;100021.69;6278322;28;20053;-76
2024/01/22 07:09:11;;;;;;;1.65;0.50;;;;;;;9.23;100.00;100017.75;6278874;28;20052;-75
2024/01/22 07:12:15;;;;;;;0.85;0.50;;;;;;;9.19;100.00;100020.66;6278783;28;20056;-75
2024/01/22 07:15:17;;;;;;;2.38;0.75;;;;;;;9.15;100.00;100044.41;6277932;28;20151;-75
2024/01/22 07:18:18;;;;;;;0.95;0.40;;;;;;;9.17;100.00;100020.72;6278292;28;20433;-76
2024/01/22 07:21:19;;;;;;;2.22;0.68;;;;;;;9.14;100.00;100028.78;6278293;28;20048;-76
2024/01/22 07:24:21;;;;;;;0.73;0.55;;;;;;;9.08;100.00;100030.00;6278093;28;20052;-75
2024/01/22 07:27:23;;;;;;;0.73;0.52;;;;;;;9.08;100.00;100014.25;6277848;28;20045;-76
2024/01/22 07:30:25;;;;;;;0.50;0.50;;;;;;;9.18;100.00;100034.69;6277999;28;20056;-76
2024/01/22 07:33:26;;;;;;;0.40;0.40;;;;;;;9.14;100.00;100045.34;6277718;28;20354;-75
2024/01/22 07:36:27;;;;;;;0.75;0.50;;;;;;;9.17;100.00;100041.69;6277248;28;20049;-77
2024/01/22 07:39:29;;;;;;;1.63;0.55;;;;;;;9.18;100.00;100051.25;6277997;28;20049;-76
2024/01/22 07:42:32;;;;;;;4.72;0.70;;;;;;;9.31;100.00;100031.25;6277592;28;20442;-75
2024/01/22 07:45:35;;;;;;;4.22;0.60;;;;;;;9.38;100.00;100032.56;6277851;28;20052;-75
2024/01/22 07:48:36;;;;;;;1.05;0.55;;;;;;;9.44;100.00;100043.59;6277384;28;20644;-76
2024/01/22 07:51:37;;;;;;;0.95;0.57;;;;;;;9.57;100.00;100041.94;6277984;28;20053;-75
2024/01/22 07:54:39;;;;;;;0.55;0.55;;;;;;;9.77;100.00;100052.09;6277507;28;20048;-74
2024/01/22 07:57:41;;;;;;;1.60;0.50;;;;;;;9.89;100.00;100050.47;6276980;28;20048;-74
2024/01/22 08:00:43;;;;;;;1.08;0.60;;;;;;;9.91;100.00;100049.44;6277451;28;20045;-71
2024/01/22 08:03:44;;;;;;;0.77;0.60;;;;;;;9.89;100.00;100053.09;6276997;28;20049;-71
2024/01/22 08:06:46;;;;;;;0.65;0.52;;;;;;;9.83;100.00;100043.81;6276275;28;20056;-72
2024/01/22 08:09:47;;;;;;;0.55;0.50;;;;;;;10.01;100.00;100054.97;6277227;28;20052;-73
2024/01/22 08:12:50;;;;;;;0.70;0.70;;;;;;;10.00;100.00;100063.78;6276874;28;20075;-72
2024/01/22 08:15:51;;;;;;;1.33;0.60;;;;;;;10.10;100.00;100070.16;6272417;28;20465;-71
2024/01/22 08:18:53;;;;;;;0.63;0.60;;;;;;;10.09;100.00;100057.13;6274884;28;20135;-71
2024/01/22 08:21:54;;;;;;;1.35;0.80;;;;;;;10.16;100.00;100071.53;6268706;28;20052;-72
2024/01/22 08:24:56;;;;;;;0.75;0.70;;;;;;;10.14;100.00;100060.31;6267728;28;20054;-71
2024/01/22 08:27:59;;;;;;;1.20;0.63;;;;;;;10.30;100.00;100068.91;6274864;28;20049;-71
2024/01/22 08:31:00;;;;;;;1.00;0.63;;;;;;;10.28;100.00;100077.84;6276328;28;20045;-71
2024/01/22 08:34:02;;;;;;;4.63;1.05;;;;;;;10.22;100.00;100059.81;6276434;28;20052;-71
2024/01/22 08:37:04;;;;;;;0.60;0.60;;;;;;;10.15;100.00;100106.63;6275479;28;20099;-71
2024/01/22 08:40:07;;;;;;;1.20;0.60;;;;;;;10.11;100.00;100090.22;6274350;28;20049;-71
2024/01/22 08:43:10;;;;;;;1.65;0.80;;;;;;;9.94;100.00;100079.91;6275778;28;20052;-71
2024/01/22 08:46:12;;;;;;;1.30;0.73;;;;;;;9.90;100.00;100086.25;6274156;28;20462;-71
2024/01/22 08:49:13;;;;;;;0.60;0.60;;;;;;;9.93;100.00;100083.47;6275035;28;20353;-70
2024/01/22 08:52:14;;;;;;;0.50;0.50;;;;;;;9.78;100.00;100093.13;6271422;28;20048;-71
2024/01/22 08:55:18;;;;;;;0.43;0.43;;;;;;;9.84;100.00;100074.38;6275864;28;20055;-71
2024/01/22 08:58:21;;;;;;;0.60;0.60;;;;;;;9.93;100.00;100078.22;6274492;28;20041;-71
2024/01/22 09:01:22;;;;;;;0.63;0.63;;;;;;;9.98;100.00;100085.81;6273961;28;20045;-71
2024/01/22 09:04:23;;;;;;;0.95;0.50;;;;;;;9.97;100.00;100077.09;6275574;28;20433;-71
2024/01/22 09:07:25;;;;;;;0.60;0.52;;;;;;;10.10;100.00;100070.16;6274967;28;20040;-71
2024/01/22 09:10:27;;;;;;;0.50;0.50;;;;;;;9.97;100.00;100073.63;6275499;28;20356;-70
2024/01/22 09:13:29;;;;;;;0.68;0.60;;;;;;;9.90;100.00;100067.91;6271621;28;20080;-70
2024/01/22 09:16:31;;;;;;;0.88;0.50;;;;;;;9.76;100.00;100063.50;6267065;28;20434;-71
2024/01/22 09:19:32;;;;;;;0.60;0.60;;;;;;;9.67;100.00;100056.19;6274878;28;20037;-70
2024/01/22 09:22:34;;;;;;;0.40;0.40;;;;;;;9.57;100.00;100069.00;6275141;28;20056;-70
2024/01/22 09:25:36;;;;;;;0.57;0.50;;;;;;;9.60;100.00;100058.34;6275600;28;20139;-70
2024/01/22 09:28:38;;;;;;;0.77;0.60;;;;;;;9.59;100.00;100064.53;6273609;28;20090;-71
2024/01/22 09:31:40;;;;;;;0.60;0.52;;;;;;;9.74;100.00;100057.50;6275372;28;20045;-70
2024/01/22 09:34:41;;;;;;;0.63;0.57;;;;;;;9.59;100.00;100061.91;6275051;28;20057;-70
2024/01/22 09:37:42;;;;;;;2.15;0.73;;;;;;;9.60;100.00;100070.63;6273397;28;20041;-70
2024/01/22 09:40:45;;;;;;;1.33;0.63;;;;;;;9.62;100.00;100060.88;6274052;28;20460;-70
2024/01/22 09:43:48;;;;;;;1.08;0.70;;;;;;;9.63;100.00;100063.41;6272276;28;20495;-70
2024/01/22 09:46:50;;;;;;;0.52;0.52;;;;;;;9.65;100.00;100063.31;6274469;28;20045;-70
2024/01/22 09:49:52;;;;;;;2.33;1.02;;;;;;;9.62;100.00;100063.50;6270185;28;20041;-70
2024/01/22 09:52:54;;;;;;;1.73;1.42;;;;;;;9.71;100.00;100065.56;6266729;28;20060;-70
2024/01/22 09:55:57;;;;;;;1.00;0.80;;;;;;;9.91;100.00;100061.72;6274375;28;20104;-69
2024/01/22 09:59:04;;;;;;;1.35;0.70;;;;;;;9.83;100.00;100056.09;6274992;28;20365;-70
2024/01/22 10:02:07;;;;;;;2.15;0.95;;;;;;;9.91;100.00;100054.69;6274924;28;20052;-69
2024/01/22 10:05:09;;;;;;;3.95;1.02;;;;;;;9.91;100.00;100059.94;6274912;28;20056;-70
2024/01/22 10:08:10;;;;;;;1.63;1.23;;;;;;;10.00;100.00;100047.19;6273934;28;20131;-70
2024/01/22 10:11:12;;;;;;;2.80;1.30;;;;;;;10.08;100.00;100058.91;6273332;28;20045;-70
2024/01/22 10:14:15;;;;;;;2.38;1.38;;;;;;;10.12;100.00;100049.03;6274444;28;20442;-70
2024/01/22 10:17:17;;;;;;;1.80;1.08;;;;;;;10.09;100.00;100046.63;6274229;28;20049;-70
2024/01/22 10:20:23;;;;;;;5.35;2.17;;;;;;;10.12;100.00;100044.63;6274886;28;20174;-71
2024/01/22 10:23:24;;;;;;;2.97;1.42;;;;;;;10.08;100.00;100039.66;6284802;28;20178;-71
2024/01/22 10:26:26;;;;;;;3.63;1.52;;;;;;;10.18;100.00;100050.47;6286902;28;20445;-71
2024/01/22 10:29:29;;;;;;;3.42;1.70;;;;;;;10.32;100.00;100045.22;6286096;28;20055;-71
2024/01/22 10:32:30;;;;;;;6.22;1.40;;;;;;;10.33;100.00;100039.00;6286280;28;20044;-71
2024/01/22 10:35:32;;;;;;;1.92;1.20;;;;;;;10.27;100.00;100047.28;6278886;28;20052;-70
2024/01/22 10:38:34;;;;;;;1.30;1.20;;;;;;;10.33;100.00;100045.09;6277712;28;20572;-70
2024/01/22 10:41:35;;;;;;;3.60;1.13;;;;;;;10.20;100.00;100031.03;6278416;28;20037;-71
2024/01/22 10:44:39;;;;;;;6.60;1.13;;;;;;;10.25;100.00;100028.97;6290637;28;20048;-70
2024/01/22 10:47:41;;;;;;;1.52;1.17;;;;;;;10.28;100.00;100026.16;6289987;28;20041;-70
2024/01/22 10:50:43;;;;;;;1.35;0.93;;;;;;;10.44;100.00;100010.25;6291440;28;20049;-72
2024/01/22 10:53:46;;;;;;;3.45;1.05;;;;;;;10.43;100.00;100005.13;6282457;28;20343;-71
2024/01/22 10:56:51;;;;;;;3.17;0.95;;;;;;;10.46;100.00;100013.63;6284969;28;20044;-71
2024/01/22 10:59:58;;;;;;;7.13;1.30;;;;;;;10.39;100.00;100013.19;6278643;28;20344;-71
2024/01/22 11:03:00;;;;;;;1.00;0.90;;;;;;;10.27;100.00;100024.50;6282250;28;20045;-72
2024/01/22 11:06:06;;;;;;;1.30;1.20;;;;;;;10.18;100.00;100011.06;6280291;28;20052;-72
2024/01/22 11:09:10;;;;;;;3.42;1.17;;;;;;;10.18;100.00;100017.16;6285308;28;20037;-71
2024/01/22 11:12:13;;;;;;;7.38;1.10;;;;;;;10.11;100.00;100019.31;6278201;28;20045;-71
2024/01/22 11:15:16;;;;;;;1.30;1.20;;;;;;;10.05;100.00;100011.84;6285780;28;20453;-71
2024/01/22 11:18:18;;;;;;;6.32;1.23;;;;;;;10.04;100.00;100007.53;6291141;28;20043;-70
2024/01/22 11:21:20;;;;;;;2.47;1.17;;;;;;;10.03;100.00;99997.94;6303061;28;20052;-71
2024/01/22 11:24:22;;;;;;;2.33;0.98;;;;;;;10.01;100.00;100001.63;6294164;28;20176;-71
2024/01/22 11:27:37;;;;;;;1.30;0.90;;;;;;;9.95;100.00;100002.88;6277652;28;20049;-71
2024/01/22 11:30:41;;;;;;;2.53;1.10;;;;;;;9.95;100.00;100020.38;6276176;28;20041;-70
2024/01/22 11:33:49;;;;;;;2.80;1.42;;;;;;;9.91;100.00;100012.72;6277213;28;20131;-71
2024/01/22 11:36:53;;;;;;;1.10;1.00;;;;;;;9.99;100.00;100000.88;6276539;28;20130;-71
2024/01/22 11:39:54;;;;;;;2.15;1.05;;;;;;;9.94;100.00;100016.06;6277732;28;20045;-72
2024/01/22 11:42:56;;;;;;;5.95;1.38;;;;;;;9.90;100.00;100012.78;6277080;28;20052;-72
2024/01/22 11:46:00;;;;;;;3.00;0.88;;;;;;;9.85;100.00;100017.47;6274117;28;20045;-72
2024/01/22 11:49:09;;;;;;;1.60;1.15;;;;;;;9.82;100.00;100057.06;6273395;28;20045;-72
2024/01/22 11:52:10;;;;;;;;;;;;;;;9.81;100.00;100065.84;6271738;28;20056;-72
2024/01/22 11:55:12;;;;;;;2.15;1.15;;;;;;;9.74;100.00;100075.03;6277347;28;20006;-73
2024/01/22 11:58:14;;;;;;;5.40;1.02;;;;;;;9.44;100.00;100077.69;6277115;28;20045;-78
2024/01/22 12:01:19;;;;;;;5.07;0.80;;;;;;;9.27;100.00;100078.72;6277220;28;20051;-76
2024/01/22 12:04:22;;;;;;;2.75;0.75;;;;;;;9.07;100.00;100078.06;6277189;28;20107;-75
2024/01/22 12:07:31;;;;;;;4.10;1.25;;;;;;;9.05;100.00;100121.06;6276066;28;20048;-75
2024/01/22 12:10:32;;;;;;;0.40;0.40;;;;;;;9.03;100.00;100117.66;6277120;28;20041;-75
2024/01/22 12:13:34;;;;;;;5.93;1.55;;;;;;;8.99;100.00;100095.19;6276807;28;20044;-74
2024/01/22 12:16:36;;;;;;;6.78;1.30;;;;;;;8.86;100.00;100106.38;6276670;28;20060;-75
2024/01/22 12:19:38;;;;;;;5.13;1.75;;;;;;;8.77;100.00;100101.66;6274482;28;20056;-74
2024/01/22 12:22:39;;;;;;;5.70;0.90;;;;;;;8.82;100.00;100089.13;6310132;22;20048;-79
2024/01/22 12:25:41;;;;;;;10.82;1.83;;;;;;;8.82;100.00;100081.28;6321286;28;20348;-81
2024/01/22 12:28:43;;;;;;;2.55;0.50;;;;;;;8.79;100.00;100093.69;6317949;28;20076;-81
2024/01/22 12:31:46;;;;;;;8.73;1.20;;;;;;;8.75;100.00;100102.66;6329447;28;20054;-81
2024/01/22 12:34:55;;;;;;;8.18;1.02;;;;;;;8.71;100.00;100095.91;6352058;28;20047;-80
2024/01/22 12:37:56;;;;;;;7.35;0.88;;;;;;;8.74;100.00;100114.06;6343240;28;20044;-81
2024/01/22 12:40:58;;;;;;;8.13;1.05;;;;;;;8.77;100.00;100109.50;6326249;28;20451;-79
2024/01/22 12:44:00;;;;;;;9.38;0.98;;;;;;;8.77;100.00;100103.44;6334825;28;20059;-80
2024/01/22 12:47:03;;;;;;;6.22;0.85;;;;;;;8.75;100.00;100107.91;6343427;28;20047;-79
2024/01/22 12:50:05;;;;;;;6.40;1.10;;;;;;;8.70;100.00;100104.69;6340877;28;20051;-80
2024/01/22 12:53:06;;;;;;;5.82;1.10;;;;;;;8.67;100.00;100105.69;6312378;28;20088;-82
2024/01/22 12:56:08;;;;;;;6.78;1.00;;;;;;;8.65;100.00;100110.19;6313248;28;20040;-81
2024/01/22 12:59:10;;;;;;;5.13;0.77;;;;;;;8.65;100.00;100110.19;6301480;28;20330;-81
2024/01/22 13:02:12;;;;;;;8.95;1.05;;;;;;;8.60;100.00;100106.97;6300861;28;20352;-80
2024/01/22 13:05:14;;;;;;;5.43;1.70;;;;;;;8.62;100.00;100111.19;6300565;28;20456;-80
2024/01/22 13:08:15;;;;;;;9.43;1.58;;;;;;;8.67;100.00;100124.03;6300084;28;20441;-80
2024/01/22 13:11:16;;;;;;;3.78;1.38;;;;;;;8.63;100.00;100136.47;6300646;28;20048;-81
2024/01/22 13:14:18;;;;;;;3.75;1.17;;;;;;;8.64;100.00;100143.41;6300263;28;20057;-81
2024/01/22 13:17:20;;;;;;;9.75;2.20;;;;;;;8.61;100.00;100145.34;6299670;28;20055;-80
2024/01/22 13:20:22;;;;;;;8.63;1.48;;;;;;;8.55;100.00;100143.06;6325311;28;20040;-79
2024/01/22 13:23:23;;;;;;;5.43;1.33;;;;;;;8.55;100.00;100151.75;6345234;28;20125;-79
2024/01/22 13:26:25;;;;;;;6.93;1.27;;;;;;;8.52;100.00;100144.06;6324984;28;20047;-79
2024/01/22 13:29:26;;;;;;;11.85;1.55;;;;;;;8.51;100.00;100149.41;6325614;28;20044;-78
2024/01/22 13:32:29;;;;;;;9.43;3.08;;;;;;;8.53;100.00;100155.38;6325040;28;20059;-77
2024/01/22 13:35:30;;;;;;;4.15;1.20;;;;;;;8.55;100.00;100137.81;6325516;28;20044;-78
2024/01/22 13:38:32;;;;;;;7.15;1.17;;;;;;;8.53;100.00;100145.75;6311598;28;20048;-79
2024/01/22 13:41:34;;;;;;;11.13;2.38;;;;;;;8.59;100.00;100150.66;6300510;28;20060;-79
2024/01/22 13:44:36;;;;;;;11.82;1.98;;;;;;;8.64;100.00;100164.34;6299677;28;20048;-79
2024/01/22 13:47:39;;;;;;;7.22;1.15;;;;;;;8.68;100.00;100165.03;6325218;28;20075;-81
2024/01/22 13:50:42;;;;;;;12.20;1.23;;;;;;;8.61;100.00;100188.09;6316315;28;20048;-77
2024/01/22 13:53:44;;;;;;;16.58;2.45;;;;;;;8.66;100.00;100187.00;6316849;28;20606;-78
2024/01/22 13:56:46;;;;;;;9.15;1.33;;;;;;;8.62;100.00;100205.47;6312256;28;20044;-78
2024/01/22 13:59:48;;;;;;;10.13;1.30;;;;;;;8.59;100.00;100194.34;6313739;28;20041;-78
2024/01/22 14:02:51;;;;;;;13.80;1.90;;;;;;;8.51;100.00;100201.75;6315751;28;20052;-78
2024/01/22 14:05:53;;;;;;;14.60;2.33;;;;;;;8.43;100.00;100198.69;6328526;28;20109;-78